Time;durP1;ratioP1;P1;durP2;ratioP2;P2;SDS_P1;SDS_P2;PMS_P1;PMS_P2;Temp;Humidity;BMP_temperature;BMP_pressure;BME280_temperature;BME280_humidity;BME280_pressure;Samples;Min_cycle;Max_cycle;Signal;HPM_P1;HPM_P2
2022/07/26 00:01:14;;;;;;;4.95;4.55;;;;;;;;;;4986007;28;20073;-63
2022/07/26 00:03:39;;;;;;;6.88;5.85;;;;;;;;;;4985112;28;20065;-63
2022/07/26 00:06:04;;;;;;;6.68;6.07;;;;;;;;;;4986366;28;20058;-62
2022/07/26 00:08:30;;;;;;;6.93;5.45;;;;;;;;;;4986631;28;20390;-61
2022/07/26 00:10:55;;;;;;;6.65;5.78;;;;;;;;;;4986052;28;20837;-63
2022/07/26 00:13:20;;;;;;;5.55;5.05;;;;;;;;;;4985980;28;20085;-63
2022/07/26 00:15:46;;;;;;;6.22;5.72;;;;;;;;;;4985622;28;20049;-63
2022/07/26 00:18:12;;;;;;;8.48;6.68;;;;;;;;;;4986492;28;20096;-63
2022/07/26 00:20:38;;;;;;;6.75;6.10;;;;;;;;;;4985983;28;20046;-63
2022/07/26 00:23:03;;;;;;;9.68;5.28;;;;;;;;;;4982909;28;20571;-63
2022/07/26 00:25:28;;;;;;;5.57;5.05;;;;;;;;;;4986081;28;20110;-63
2022/07/26 00:27:54;;;;;;;6.03;4.95;;;;;;;;;;4985973;28;20140;-63
2022/07/26 00:30:20;;;;;;;5.45;4.93;;;;;;;;;;4984249;28;20587;-62
2022/07/26 00:32:45;;;;;;;6.05;5.53;;;;;;;;;;4986451;28;20053;-62
2022/07/26 00:35:10;;;;;;;8.32;6.53;;;;;;;;;;4988575;28;20458;-63
2022/07/26 00:37:36;;;;;;;12.68;5.03;;;;;;;;;;4988613;28;20048;-63
2022/07/26 00:40:03;;;;;;;6.32;5.38;;;;;;;;;;4988977;28;20047;-63
2022/07/26 00:42:28;;;;;;;7.68;5.68;;;;;;;;;;4990281;28;20567;-62
2022/07/26 00:44:53;;;;;;;5.97;4.90;;;;;;;;;;4988775;28;20567;-63
2022/07/26 00:47:18;;;;;;;6.60;5.80;;;;;;;;;;4988618;28;20054;-62
2022/07/26 00:49:44;;;;;;;11.27;6.35;;;;;;;;;;4988783;28;20042;-63
2022/07/26 00:52:09;;;;;;;5.65;4.80;;;;;;;;;;4988717;28;20269;-62
2022/07/26 00:54:35;;;;;;;10.80;6.38;;;;;;;;;;4989017;28;20405;-63
2022/07/26 00:57:01;;;;;;;6.10;5.47;;;;;;;;;;4988974;28;20050;-62
2022/07/26 00:59:26;;;;;;;6.40;5.25;;;;;;;;;;4988129;28;21001;-63
2022/07/26 01:01:52;;;;;;;5.35;4.78;;;;;;;;;;4989820;28;20052;-63
2022/07/26 01:04:17;;;;;;;12.23;6.63;;;;;;;;;;4988951;28;20114;-63
2022/07/26 01:06:42;;;;;;;6.00;5.28;;;;;;;;;;4988228;28;20503;-62
2022/07/26 01:09:08;;;;;;;5.00;4.50;;;;;;;;;;4988316;28;20537;-63
2022/07/26 01:11:33;;;;;;;6.00;5.32;;;;;;;;;;4989644;28;20500;-63
2022/07/26 01:13:59;;;;;;;9.07;7.07;;;;;;;;;;4990288;28;20056;-62
2022/07/26 01:16:24;;;;;;;54.03;11.02;;;;;;;;;;4987983;28;20125;-62
2022/07/26 01:18:50;;;;;;;10.65;5.07;;;;;;;;;;4988406;28;20589;-63
2022/07/26 01:21:15;;;;;;;7.03;5.13;;;;;;;;;;4986286;28;20057;-63
2022/07/26 01:23:41;;;;;;;5.60;4.18;;;;;;;;;;4986887;28;20074;-62
2022/07/26 01:26:07;;;;;;;6.50;5.90;;;;;;;;;;4984605;28;20129;-62
2022/07/26 01:28:36;;;;;;;5.75;5.00;;;;;;;;;;4988181;28;20157;-63
2022/07/26 01:31:01;;;;;;;11.32;6.28;;;;;;;;;;4988052;28;20197;-63
2022/07/26 01:33:27;;;;;;;9.73;7.72;;;;;;;;;;4988061;28;20509;-62
2022/07/26 01:35:52;;;;;;;18.13;8.45;;;;;;;;;;4987289;28;20050;-64
2022/07/26 01:38:18;;;;;;;6.53;5.93;;;;;;;;;;4987034;28;20118;-62
2022/07/26 01:40:43;;;;;;;6.05;5.45;;;;;;;;;;4987931;28;20500;-62
2022/07/26 01:43:08;;;;;;;5.65;5.15;;;;;;;;;;4988257;28;20461;-62
2022/07/26 01:45:34;;;;;;;6.20;5.70;;;;;;;;;;4986838;28;20060;-65
2022/07/26 01:48:00;;;;;;;8.43;6.40;;;;;;;;;;4987313;28;20061;-62
2022/07/26 01:50:25;;;;;;;6.70;4.85;;;;;;;;;;4988268;28;20050;-63
2022/07/26 01:52:50;;;;;;;20.75;5.95;;;;;;;;;;4986602;28;20583;-62
2022/07/26 01:55:16;;;;;;;13.20;6.03;;;;;;;;;;4989300;28;20137;-62
2022/07/26 01:57:43;;;;;;;7.15;5.25;;;;;;;;;;4987749;28;20050;-63
2022/07/26 02:00:09;;;;;;;9.88;6.07;;;;;;;;;;4987530;28;20057;-63
2022/07/26 02:02:34;;;;;;;5.28;4.70;;;;;;;;;;4987600;28;20042;-62
2022/07/26 02:05:00;;;;;;;7.10;6.20;;;;;;;;;;4987611;28;20042;-62
2022/07/26 02:07:36;;;;;;;10.40;6.65;;;;;;;;;;4986994;28;20663;-62
2022/07/26 02:10:02;;;;;;;8.27;7.18;;;;;;;;;;4986902;28;20906;-63
2022/07/26 02:12:27;;;;;;;5.72;5.22;;;;;;;;;;4986939;28;20156;-63
2022/07/26 02:14:52;;;;;;;8.00;6.35;;;;;;;;;;4987743;28;20053;-63
2022/07/26 02:17:18;;;;;;;11.00;6.03;;;;;;;;;;4987411;28;20038;-62
2022/07/26 02:19:43;;;;;;;7.38;5.68;;;;;;;;;;4988320;28;20053;-62
2022/07/26 02:22:09;;;;;;;9.43;6.10;;;;;;;;;;4986872;28;20049;-62
2022/07/26 02:24:34;;;;;;;10.38;4.45;;;;;;;;;;4987500;28;20567;-63
2022/07/26 02:26:59;;;;;;;6.05;5.53;;;;;;;;;;4988545;28;20053;-62
2022/07/26 02:29:25;;;;;;;7.68;6.90;;;;;;;;;;4987599;28;20554;-61
2022/07/26 02:31:51;;;;;;;8.38;6.28;;;;;;;;;;4987293;28;20137;-63
2022/07/26 02:34:17;;;;;;;6.75;6.13;;;;;;;;;;4987784;28;20050;-62
2022/07/26 02:36:42;;;;;;;7.75;6.75;;;;;;;;;;4987164;28;20058;-62
2022/07/26 02:39:08;;;;;;;13.60;7.05;;;;;;;;;;4986665;28;20070;-62
2022/07/26 02:41:33;;;;;;;17.08;6.25;;;;;;;;;;4986886;28;20141;-63
2022/07/26 02:43:59;;;;;;;8.27;5.03;;;;;;;;;;4986582;28;20034;-62
2022/07/26 02:46:24;;;;;;;7.82;5.88;;;;;;;;;;4986850;28;20042;-61
2022/07/26 02:48:50;;;;;;;6.55;5.93;;;;;;;;;;4987347;28;20085;-63
2022/07/26 02:51:15;;;;;;;8.48;7.22;;;;;;;;;;4986923;28;20153;-62
2022/07/26 02:53:40;;;;;;;8.90;6.47;;;;;;;;;;4986839;28;20050;-63
2022/07/26 02:56:06;;;;;;;10.50;7.03;;;;;;;;;;4986494;28;20090;-63
2022/07/26 02:58:31;;;;;;;4.80;4.40;;;;;;;;;;4986454;28;20050;-63
2022/07/26 03:00:56;;;;;;;7.07;6.47;;;;;;;;;;4986715;28;20101;-63
2022/07/26 03:03:22;;;;;;;12.45;6.55;;;;;;;;;;4986802;28;20046;-63
2022/07/26 03:05:47;;;;;;;7.00;5.20;;;;;;;;;;4986598;28;20073;-64
2022/07/26 03:08:12;;;;;;;11.60;6.63;;;;;;;;;;4985293;28;20080;-62
2022/07/26 03:10:38;;;;;;;10.70;7.05;;;;;;;;;;4988890;28;20042;-62
2022/07/26 03:13:03;;;;;;;9.95;5.85;;;;;;;;;;4986403;28;20523;-62
2022/07/26 03:15:28;;;;;;;6.10;5.47;;;;;;;;;;4986692;28;20433;-63
2022/07/26 03:17:54;;;;;;;6.68;6.07;;;;;;;;;;4986640;28;20555;-62
2022/07/26 03:20:19;;;;;;;6.28;5.38;;;;;;;;;;4985284;28;20654;-62
2022/07/26 03:22:44;;;;;;;7.70;4.75;;;;;;;;;;4986159;28;20053;-63
2022/07/26 03:25:10;;;;;;;15.45;6.50;;;;;;;;;;4986316;28;20046;-63
2022/07/26 03:27:35;;;;;;;4.57;3.85;;;;;;;;;;4986274;28;20150;-63
2022/07/26 03:30:00;;;;;;;5.22;3.78;;;;;;;;;;4986254;28;20108;-63
2022/07/26 03:32:26;;;;;;;6.32;5.72;;;;;;;;;;4986208;28;20133;-62
2022/07/26 03:34:51;;;;;;;6.78;5.97;;;;;;;;;;4986173;28;20046;-62
2022/07/26 03:37:17;;;;;;;6.43;5.85;;;;;;;;;;4986053;28;20462;-62
2022/07/26 03:39:42;;;;;;;9.50;6.28;;;;;;;;;;4986206;28;20042;-62
2022/07/26 03:42:07;;;;;;;7.60;4.85;;;;;;;;;;4985794;28;20490;-63
2022/07/26 03:44:33;;;;;;;9.77;7.53;;;;;;;;;;4985465;28;20125;-62
2022/07/26 03:46:58;;;;;;;5.63;5.13;;;;;;;;;;4986473;28;20161;-62
2022/07/26 03:49:24;;;;;;;9.95;7.07;;;;;;;;;;4986460;28;20046;-62
2022/07/26 03:51:49;;;;;;;7.97;6.72;;;;;;;;;;4985033;28;20061;-62
2022/07/26 03:54:14;;;;;;;6.68;6.00;;;;;;;;;;4987291;28;20061;-63
2022/07/26 03:56:39;;;;;;;11.07;5.18;;;;;;;;;;4986462;28;20489;-63
2022/07/26 03:59:09;;;;;;;18.27;8.77;;;;;;;;;;4986417;28;20513;-63
2022/07/26 04:01:38;;;;;;;10.85;8.32;;;;;;;;;;4986180;28;20616;-62
2022/07/26 04:04:03;;;;;;;7.80;6.90;;;;;;;;;;4985543;28;20309;-63
2022/07/26 04:06:29;;;;;;;12.60;7.57;;;;;;;;;;4985764;28;20042;-63
2022/07/26 04:08:54;;;;;;;10.48;6.45;;;;;;;;;;4986866;28;20050;-61
2022/07/26 04:11:20;;;;;;;6.60;6.00;;;;;;;;;;4989400;28;20405;-62
2022/07/26 04:13:45;;;;;;;8.77;6.60;;;;;;;;;;4990472;28;20044;-63
2022/07/26 04:16:10;;;;;;;11.15;6.55;;;;;;;;;;4989344;28;20169;-63
2022/07/26 04:18:36;;;;;;;7.82;7.13;;;;;;;;;;4989559;28;20074;-63
2022/07/26 04:21:01;;;;;;;8.23;7.43;;;;;;;;;;4989495;28;20058;-61
2022/07/26 04:23:27;;;;;;;7.57;6.80;;;;;;;;;;4990759;28;20042;-62
2022/07/26 04:25:52;;;;;;;6.35;5.50;;;;;;;;;;4987808;28;20073;-62
2022/07/26 04:28:17;;;;;;;8.48;7.53;;;;;;;;;;4989020;28;20039;-62
2022/07/26 04:30:43;;;;;;;7.13;6.53;;;;;;;;;;4989918;28;20066;-62
2022/07/26 04:33:08;;;;;;;8.27;7.03;;;;;;;;;;4989038;28;20047;-62
2022/07/26 04:35:34;;;;;;;7.57;5.85;;;;;;;;;;4988796;28;20042;-62
2022/07/26 04:38:00;;;;;;;10.27;6.22;;;;;;;;;;4991064;28;20572;-62
2022/07/26 04:40:27;;;;;;;13.20;7.07;;;;;;;;;;4988833;28;20127;-63
2022/07/26 04:42:53;;;;;;;8.88;7.28;;;;;;;;;;4989676;28;20054;-62
2022/07/26 04:45:18;;;;;;;7.18;6.47;;;;;;;;;;4989769;28;20401;-62
2022/07/26 04:47:44;;;;;;;7.90;6.57;;;;;;;;;;4988934;28;20129;-63
2022/07/26 04:50:13;;;;;;;13.98;7.32;;;;;;;;;;4988726;28;20082;-63
2022/07/26 04:52:38;;;;;;;8.00;6.82;;;;;;;;;;4988548;28;20419;-63
2022/07/26 04:55:05;;;;;;;11.40;6.45;;;;;;;;;;4987408;28;20046;-62
2022/07/26 04:57:30;;;;;;;11.93;5.97;;;;;;;;;;4988733;28;20116;-62
2022/07/26 04:59:56;;;;;;;8.88;7.35;;;;;;;;;;4988494;28;20046;-60
2022/07/26 05:02:21;;;;;;;8.38;7.25;;;;;;;;;;4988566;28;20065;-63
2022/07/26 05:04:46;;;;;;;5.90;5.40;;;;;;;;;;4988686;28;20058;-61
2022/07/26 05:07:11;;;;;;;6.90;5.85;;;;;;;;;;4990394;28;20390;-59
2022/07/26 05:09:37;;;;;;;9.80;7.85;;;;;;;;;;4988760;28;20053;-62
2022/07/26 05:12:02;;;;;;;9.77;6.18;;;;;;;;;;4988732;28;20065;-62
2022/07/26 05:14:27;;;;;;;15.38;7.30;;;;;;;;;;4988192;28;20612;-62
2022/07/26 05:16:53;;;;;;;18.73;6.30;;;;;;;;;;4987892;28;20088;-63
2022/07/26 05:19:18;;;;;;;8.90;4.80;;;;;;;;;;4987690;28;20097;-63
2022/07/26 05:21:43;;;;;;;8.75;5.78;;;;;;;;;;4986611;28;20160;-64
2022/07/26 05:24:09;;;;;;;8.82;7.97;;;;;;;;;;4987077;28;20525;-63
2022/07/26 05:26:34;;;;;;;9.85;8.85;;;;;;;;;;4988125;28;20600;-63
2022/07/26 05:28:59;;;;;;;7.75;5.57;;;;;;;;;;4988417;28;20512;-62
2022/07/26 05:31:25;;;;;;;9.68;6.85;;;;;;;;;;4983706;28;20383;-62
2022/07/26 05:33:50;;;;;;;8.98;7.78;;;;;;;;;;4986686;28;20137;-62
2022/07/26 05:36:16;;;;;;;10.10;7.50;;;;;;;;;;4985868;28;20057;-62
2022/07/26 05:38:41;;;;;;;12.15;8.05;;;;;;;;;;4985865;28;20095;-62
2022/07/26 05:41:07;;;;;;;8.48;7.40;;;;;;;;;;4986091;28;20829;-61
2022/07/26 05:43:32;;;;;;;10.43;6.78;;;;;;;;;;4985927;28;20401;-62
2022/07/26 05:45:57;;;;;;;15.40;8.20;;;;;;;;;;4986084;28;20097;-63
2022/07/26 05:48:23;;;;;;;11.77;7.65;;;;;;;;;;4986499;28;20085;-63
2022/07/26 05:50:48;;;;;;;13.00;8.23;;;;;;;;;;4986296;28;20054;-62
2022/07/26 05:53:14;;;;;;;30.05;16.77;;;;;;;;;;4985316;28;20042;-62
2022/07/26 05:55:39;;;;;;;24.73;15.80;;;;;;;;;;4985683;28;20064;-62
2022/07/26 05:58:04;;;;;;;14.82;10.13;;;;;;;;;;4986611;28;20065;-61
2022/07/26 06:00:30;;;;;;;12.50;7.82;;;;;;;;;;4988815;28;20046;-62
2022/07/26 06:02:55;;;;;;;13.98;8.20;;;;;;;;;;4986636;28;20076;-62
2022/07/26 06:05:20;;;;;;;13.23;9.60;;;;;;;;;;4986759;28;20128;-63
2022/07/26 06:07:46;;;;;;;16.88;13.15;;;;;;;;;;4988443;28;20221;-62
2022/07/26 06:10:11;;;;;;;17.15;13.77;;;;;;;;;;4987964;28;20061;-63
2022/07/26 06:12:36;;;;;;;19.67;17.60;;;;;;;;;;4987988;28;20587;-62
2022/07/26 06:15:02;;;;;;;21.63;15.40;;;;;;;;;;4989257;28;20132;-62
2022/07/26 06:17:28;;;;;;;29.30;11.25;;;;;;;;;;4985526;28;20421;-62
2022/07/26 06:19:54;;;;;;;25.27;13.88;;;;;;;;;;4986739;28;20470;-63
2022/07/26 06:22:20;;;;;;;22.95;13.05;;;;;;;;;;4987306;28;20051;-62
2022/07/26 06:24:45;;;;;;;16.27;11.25;;;;;;;;;;4987166;28;20057;-63
2022/07/26 06:27:10;;;;;;;20.50;12.63;;;;;;;;;;4987176;28;20050;-63
2022/07/26 06:29:36;;;;;;;22.13;15.15;;;;;;;;;;4987153;28;20628;-62
2022/07/26 06:32:01;;;;;;;11.45;10.32;;;;;;;;;;4986729;28;20046;-62
2022/07/26 06:34:26;;;;;;;10.98;10.00;;;;;;;;;;4987646;28;20056;-62
2022/07/26 06:36:52;;;;;;;11.68;9.43;;;;;;;;;;4987879;28;20046;-63
2022/07/26 06:39:17;;;;;;;12.70;11.40;;;;;;;;;;4987415;28;20421;-63
2022/07/26 06:41:42;;;;;;;18.27;16.52;;;;;;;;;;4988095;28;20077;-63
2022/07/26 06:44:08;;;;;;;13.43;12.18;;;;;;;;;;4986868;28;20757;-63
2022/07/26 06:46:33;;;;;;;10.60;9.60;;;;;;;;;;4987195;28;20057;-63
2022/07/26 06:48:59;;;;;;;15.13;8.02;;;;;;;;;;4986630;28;20136;-63
2022/07/26 06:51:24;;;;;;;10.18;6.72;;;;;;;;;;4985697;28;20205;-63
2022/07/26 06:53:49;;;;;;;17.23;8.43;;;;;;;;;;4986449;28;20064;-62
2022/07/26 06:56:18;;;;;;;10.10;9.00;;;;;;;;;;4986916;28;20465;-64
2022/07/26 06:58:43;;;;;;;21.55;10.98;;;;;;;;;;4986589;28;20104;-64
2022/07/26 07:01:08;;;;;;;18.38;9.18;;;;;;;;;;4987396;28;20058;-62
2022/07/26 07:03:34;;;;;;;14.13;7.85;;;;;;;;;;4985720;28;20525;-62
2022/07/26 07:05:59;;;;;;;18.23;9.93;;;;;;;;;;4986737;28;20641;-63
2022/07/26 07:08:25;;;;;;;10.95;7.18;;;;;;;;;;4986306;28;20050;-62
2022/07/26 07:10:51;;;;;;;8.45;6.85;;;;;;;;;;4986332;28;20050;-62
2022/07/26 07:13:16;;;;;;;11.27;8.55;;;;;;;;;;4986775;28;20541;-61
2022/07/26 07:15:41;;;;;;;10.43;6.90;;;;;;;;;;4988206;28;20046;-62
2022/07/26 07:18:07;;;;;;;6.07;5.22;;;;;;;;;;4984160;28;20038;-62
2022/07/26 07:20:33;;;;;;;7.28;5.60;;;;;;;;;;4986180;28;20150;-61
2022/07/26 07:22:58;;;;;;;9.85;7.30;;;;;;;;;;4988390;28;20105;-60
2022/07/26 07:25:24;;;;;;;15.95;7.60;;;;;;;;;;4986802;28;20061;-61
2022/07/26 07:27:49;;;;;;;7.13;5.47;;;;;;;;;;4986586;28;20057;-61
2022/07/26 07:30:15;;;;;;;12.60;4.60;;;;;;;;;;4986185;28;20426;-61
2022/07/26 07:32:41;;;;;;;6.60;4.47;;;;;;;;;;4985695;28;20417;-61
2022/07/26 07:35:06;;;;;;;8.02;3.80;;;;;;;;;;4985935;28;20062;-62
2022/07/26 07:37:33;;;;;;;14.10;6.25;;;;;;;;;;4985706;28;20042;-62
2022/07/26 07:39:58;;;;;;;6.90;4.30;;;;;;;;;;4985689;28;20039;-62
2022/07/26 07:42:23;;;;;;;6.47;3.50;;;;;;;;;;4985199;28;20061;-62
2022/07/26 07:44:49;;;;;;;7.50;4.47;;;;;;;;;;4986577;28;20509;-61
2022/07/26 07:47:14;;;;;;;5.85;2.88;;;;;;;;;;4986548;28;20532;-62
2022/07/26 07:49:39;;;;;;;9.10;2.60;;;;;;;;;;4985747;28;20042;-61
2022/07/26 07:52:05;;;;;;;24.42;6.25;;;;;;;;;;4985815;28;20283;-61
2022/07/26 07:54:30;;;;;;;9.82;5.95;;;;;;;;;;4985774;28;20392;-61
2022/07/26 07:56:56;;;;;;;12.75;6.28;;;;;;;;;;4986322;28;20065;-61
2022/07/26 07:59:21;;;;;;;8.77;5.28;;;;;;;;;;4986824;28;20070;-62
2022/07/26 08:01:47;;;;;;;15.30;4.00;;;;;;;;;;4985093;28;20045;-61
2022/07/26 08:04:12;;;;;;;8.18;3.75;;;;;;;;;;4985085;28;20058;-64
2022/07/26 08:06:37;;;;;;;8.02;2.92;;;;;;;;;;4985629;28;20074;-64
2022/07/26 08:09:03;;;;;;;10.63;6.20;;;;;;;;;;4986183;28;20051;-64
2022/07/26 08:11:28;;;;;;;10.70;3.88;;;;;;;;;;4988265;28;20050;-62
2022/07/26 08:13:54;;;;;;;9.43;2.80;;;;;;;;;;4986163;28;20086;-63
2022/07/26 08:16:19;;;;;;;5.45;4.00;;;;;;;;;;4986446;28;20417;-64
2022/07/26 08:18:44;;;;;;;3.45;2.40;;;;;;;;;;4986128;28;20181;-64
2022/07/26 08:21:09;;;;;;;3.58;1.95;;;;;;;;;;4987423;28;20449;-64
2022/07/26 08:23:35;;;;;;;9.20;4.00;;;;;;;;;;4985284;28;20501;-64
2022/07/26 08:26:00;;;;;;;5.88;3.50;;;;;;;;;;4985984;28;20077;-64
2022/07/26 08:28:26;;;;;;;4.75;2.20;;;;;;;;;;4985603;28;20160;-62
2022/07/26 08:30:52;;;;;;;49.65;8.25;;;;;;;;;;4985003;28;20050;-64
2022/07/26 08:33:17;;;;;;;15.20;7.25;;;;;;;;;;4984698;28;20091;-63
2022/07/26 08:35:42;;;;;;;16.10;6.57;;;;;;;;;;4986311;28;20051;-61
2022/07/26 08:38:08;;;;;;;73.05;15.18;;;;;;;;;;4984582;28;20042;-62
2022/07/26 08:40:33;;;;;;;86.40;17.20;;;;;;;;;;4985476;28;20047;-62
2022/07/26 08:43:01;;;;;;;7.75;5.53;;;;;;;;;;4985173;28;20055;-62
2022/07/26 08:45:27;;;;;;;29.77;4.78;;;;;;;;;;4985192;28;20069;-62
2022/07/26 08:47:53;;;;;;;5.35;2.85;;;;;;;;;;4985380;28;20074;-62
2022/07/26 08:50:18;;;;;;;5.30;2.22;;;;;;;;;;4985363;28;20069;-63
2022/07/26 08:52:44;;;;;;;4.95;2.60;;;;;;;;;;4984966;28;20046;-60
2022/07/26 08:55:10;;;;;;;11.85;4.70;;;;;;;;;;4986063;28;20039;-60
2022/07/26 08:57:35;;;;;;;44.22;8.85;;;;;;;;;;4988227;28;20089;-60
2022/07/26 09:00:19;;;;;;;7.93;3.05;;;;;;;;;;4988128;28;20117;-60
2022/07/26 09:02:45;;;;;;;8.75;2.45;;;;;;;;;;4987376;28;20070;-62
2022/07/26 09:05:10;;;;;;;4.32;2.03;;;;;;;;;;4988322;28;20039;-62
2022/07/26 09:07:38;;;;;;;5.63;2.13;;;;;;;;;;4986875;28;21087;-62
2022/07/26 09:10:08;;;;;;;7.50;2.75;;;;;;;;;;4987847;28;20513;-63
2022/07/26 09:12:33;;;;;;;5.32;3.05;;;;;;;;;;4987678;28;20047;-61
2022/07/26 09:14:59;;;;;;;6.47;2.22;;;;;;;;;;4988270;28;20038;-63
2022/07/26 09:17:37;;;;;;;4.80;2.13;;;;;;;;;;4988170;28;20046;-63
2022/07/26 09:20:02;;;;;;;8.80;2.75;;;;;;;;;;4988240;28;20077;-63
2022/07/26 09:22:28;;;;;;;7.20;2.80;;;;;;;;;;4987788;28;20046;-62
2022/07/26 09:24:53;;;;;;;9.00;1.98;;;;;;;;;;4988137;28;20053;-62
2022/07/26 09:27:19;;;;;;;15.70;4.00;;;;;;;;;;4987802;28;20069;-63
2022/07/26 09:29:48;;;;;;;11.10;3.35;;;;;;;;;;4988094;28;20046;-64
2022/07/26 09:32:15;;;;;;;3.95;1.90;;;;;;;;;;4987237;28;20026;-63
2022/07/26 09:34:41;;;;;;;10.02;3.55;;;;;;;;;;4987929;28;20042;-63
2022/07/26 09:37:06;;;;;;;2.80;2.08;;;;;;;;;;4987818;28;20048;-63
2022/07/26 09:39:32;;;;;;;3.88;1.85;;;;;;;;;;4987411;28;20133;-63
2022/07/26 09:41:57;;;;;;;7.15;2.55;;;;;;;;;;4987417;28;20046;-62
2022/07/26 09:44:23;;;;;;;20.35;6.63;;;;;;;;;;4987915;28;20157;-63
2022/07/26 09:46:56;;;;;;;10.65;8.07;;;;;;;;;;4987726;28;20185;-63
2022/07/26 09:49:22;;;;;;;14.93;4.30;;;;;;;;;;4987492;28;20055;-62
2022/07/26 09:51:49;;;;;;;8.93;3.88;;;;;;;;;;4988023;28;20148;-63
2022/07/26 09:54:34;;;;;;;2.67;2.45;;;;;;;;;;4987956;28;20064;-62
2022/07/26 09:56:59;;;;;;;7.78;3.67;;;;;;;;;;4986335;28;20539;-63
2022/07/26 09:59:25;;;;;;;4.30;2.25;;;;;;;;;;4987393;28;20065;-63
2022/07/26 10:01:52;;;;;;;4.53;2.40;;;;;;;;;;4987770;28;20049;-61
2022/07/26 10:04:18;;;;;;;9.63;3.38;;;;;;;;;;4985688;28;20173;-62
2022/07/26 10:06:43;;;;;;;5.55;3.15;;;;;;;;;;4984644;28;20054;-63
2022/07/26 10:09:09;;;;;;;4.90;2.97;;;;;;;;;;4987021;28;20069;-63
2022/07/26 10:11:55;;;;;;;16.70;4.10;;;;;;;;;;4989702;28;20034;-63
2022/07/26 10:14:32;;;;;;;5.45;3.40;;;;;;;;;;4986113;28;20054;-63
2022/07/26 10:16:58;;;;;;;15.13;3.28;;;;;;;;;;4987463;28;20141;-63
2022/07/26 10:19:56;;;;;;;12.40;3.05;;;;;;;;;;4987776;28;20407;-62
2022/07/26 10:22:25;;;;;;;5.95;2.03;;;;;;;;;;4974850;28;20050;-62
2022/07/26 10:24:53;;;;;;;2.72;1.92;;;;;;;;;;4986435;28;20052;-63
2022/07/26 10:27:37;;;;;;;2.55;1.67;;;;;;;;;;4986607;28;20057;-62
2022/07/26 10:30:17;;;;;;;4.38;2.13;;;;;;;;;;4986970;28;20038;-61
2022/07/26 10:33:03;;;;;;;6.10;3.67;;;;;;;;;;4986662;28;20046;-62
2022/07/26 10:35:28;;;;;;;2.97;2.08;;;;;;;;;;4983704;28;20120;-63
2022/07/26 10:38:01;;;;;;;5.22;2.20;;;;;;;;;;4987425;28;20046;-63
2022/07/26 10:40:30;;;;;;;4.85;2.10;;;;;;;;;;4985614;28;20141;-63
2022/07/26 10:43:07;;;;;;;2.60;1.38;;;;;;;;;;4986267;28;20050;-61
2022/07/26 10:45:33;;;;;;;2.00;1.17;;;;;;;;;;4986315;28;21037;-62
2022/07/26 10:48:10;;;;;;;4.22;1.52;;;;;;;;;;4986482;28;20073;-62
2022/07/26 10:50:36;;;;;;;3.55;2.42;;;;;;;;;;4986216;28;20042;-62
2022/07/26 10:53:02;;;;;;;3.97;1.73;;;;;;;;;;4986654;28;20089;-62
2022/07/26 10:55:27;;;;;;;3.88;1.50;;;;;;;;;;4986906;28;20505;-62
2022/07/26 10:57:52;;;;;;;7.75;3.10;;;;;;;;;;4986113;28;20058;-62
2022/07/26 11:00:19;;;;;;;7.18;2.22;;;;;;;;;;4985851;28;20152;-62
2022/07/26 11:02:49;;;;;;;3.35;1.65;;;;;;;;;;4986859;28;20053;-62
2022/07/26 11:05:16;;;;;;;6.80;3.75;;;;;;;;;;4986612;28;20046;-62
2022/07/26 11:08:03;;;;;;;12.05;4.05;;;;;;;;;;4986705;28;20046;-62
2022/07/26 11:10:33;;;;;;;4.22;1.92;;;;;;;;;;4986817;28;20120;-62
2022/07/26 11:13:01;;;;;;;2.17;1.38;;;;;;;;;;4986121;28;20505;-62
2022/07/26 11:15:27;;;;;;;7.88;4.30;;;;;;;;;;4986368;28;20046;-62
2022/07/26 11:18:04;;;;;;;3.35;2.42;;;;;;;;;;4986327;28;20056;-62
2022/07/26 11:20:29;;;;;;;4.25;2.47;;;;;;;;;;4986380;28;20513;-62
2022/07/26 11:22:54;;;;;;;6.07;3.40;;;;;;;;;;4989163;28;20129;-62
2022/07/26 11:25:20;;;;;;;2.58;1.58;;;;;;;;;;4986637;28;20141;-62
2022/07/26 11:27:59;;;;;;;7.35;2.83;;;;;;;;;;4985837;28;20065;-62
2022/07/26 11:30:24;;;;;;;2.97;1.92;;;;;;;;;;4985879;28;20098;-62
2022/07/26 11:32:54;;;;;;;8.02;2.75;;;;;;;;;;4985997;28;20102;-63
2022/07/26 11:35:19;;;;;;;5.80;2.22;;;;;;;;;;4985230;28;20132;-63
2022/07/26 11:37:55;;;;;;;4.53;2.25;;;;;;;;;;4986588;28;20125;-62
2022/07/26 11:40:39;;;;;;;2.17;1.33;;;;;;;;;;4986265;28;20093;-62
2022/07/26 11:43:04;;;;;;;5.88;3.08;;;;;;;;;;4984910;28;20124;-62
2022/07/26 11:45:30;;;;;;;8.45;2.33;;;;;;;;;;4985579;28;20509;-62
2022/07/26 11:47:58;;;;;;;3.40;2.00;;;;;;;;;;4986006;28;20544;-62
2022/07/26 11:50:23;;;;;;;6.38;2.85;;;;;;;;;;4985661;28;20051;-62
2022/07/26 11:52:49;;;;;;;10.82;2.17;;;;;;;;;;4985607;28;20046;-62
2022/07/26 11:55:14;;;;;;;10.02;3.28;;;;;;;;;;4985510;28;20046;-63
2022/07/26 11:57:39;;;;;;;2.30;1.38;;;;;;;;;;4985447;28;20050;-62
2022/07/26 12:00:05;;;;;;;7.30;1.75;;;;;;;;;;4986057;28;20053;-63
2022/07/26 12:02:30;;;;;;;7.78;4.07;;;;;;;;;;4985826;28;20587;-62
2022/07/26 12:05:14;;;;;;;7.30;1.85;;;;;;;;;;4985890;28;20046;-62
2022/07/26 12:07:51;;;;;;;8.45;3.00;;;;;;;;;;4987403;28;20089;-62
2022/07/26 12:10:17;;;;;;;3.70;1.30;;;;;;;;;;4983736;28;20053;-62
2022/07/26 12:12:42;;;;;;;6.90;1.75;;;;;;;;;;4985628;28;20050;-63
2022/07/26 12:15:07;;;;;;;3.47;2.00;;;;;;;;;;4985957;28;20062;-62
2022/07/26 12:17:33;;;;;;;3.28;2.05;;;;;;;;;;4984536;28;20054;-64
2022/07/26 12:20:15;;;;;;;7.32;2.45;;;;;;;;;;4985350;28;20047;-63
2022/07/26 12:22:40;;;;;;;5.53;2.28;;;;;;;;;;4984486;28;20062;-62
2022/07/26 12:25:06;;;;;;;7.53;2.70;;;;;;;;;;4985832;28;20082;-62
2022/07/26 12:27:32;;;;;;;5.78;2.45;;;;;;;;;;4985342;28;20916;-62
2022/07/26 12:30:01;;;;;;;7.57;3.78;;;;;;;;;;4986439;28;20061;-60
2022/07/26 12:32:33;;;;;;;3.90;1.92;;;;;;;;;;4990891;28;20038;-61
2022/07/26 12:35:06;;;;;;;7.63;1.85;;;;;;;;;;4988773;28;20034;-62
2022/07/26 12:37:33;;;;;;;10.18;3.85;;;;;;;;;;4988520;28;20058;-62
2022/07/26 12:40:01;;;;;;;3.05;1.52;;;;;;;;;;4989175;28;20060;-61
2022/07/26 12:42:28;;;;;;;4.20;2.00;;;;;;;;;;4989034;28;20496;-61
2022/07/26 12:44:53;;;;;;;6.63;2.83;;;;;;;;;;4989026;28;20041;-62
2022/07/26 12:47:19;;;;;;;4.03;2.00;;;;;;;;;;4988699;28;20054;-61
2022/07/26 12:49:45;;;;;;;5.70;1.52;;;;;;;;;;4988146;28;20069;-62
2022/07/26 12:52:11;;;;;;;3.22;1.40;;;;;;;;;;4988399;28;20096;-62
2022/07/26 12:54:37;;;;;;;1.92;1.55;;;;;;;;;;4988583;28;20042;-62
2022/07/26 12:57:02;;;;;;;11.90;2.42;;;;;;;;;;4988830;28;20501;-62
2022/07/26 12:59:27;;;;;;;4.20;1.75;;;;;;;;;;4988592;28;20478;-61
2022/07/26 13:01:53;;;;;;;5.63;1.00;;;;;;;;;;4987876;28;20064;-61
2022/07/26 13:04:18;;;;;;;6.45;3.35;;;;;;;;;;4988393;28;20474;-60
2022/07/26 13:06:43;;;;;;;8.70;1.80;;;;;;;;;;4989091;28;20058;-62
2022/07/26 13:09:09;;;;;;;7.85;2.45;;;;;;;;;;4988506;28;20050;-62
2022/07/26 13:11:34;;;;;;;4.82;2.53;;;;;;;;;;4988518;28;20053;-61
2022/07/26 13:13:59;;;;;;;4.80;2.58;;;;;;;;;;4988427;28;20050;-61
2022/07/26 13:16:25;;;;;;;3.35;2.33;;;;;;;;;;4988666;28;20046;-61
2022/07/26 13:18:50;;;;;;;9.25;2.13;;;;;;;;;;4988309;28;20589;-62
2022/07/26 13:21:15;;;;;;;4.75;2.75;;;;;;;;;;4988929;28;20609;-62
2022/07/26 13:23:41;;;;;;;5.53;2.55;;;;;;;;;;4988900;28;20057;-62
2022/07/26 13:26:06;;;;;;;5.03;2.45;;;;;;;;;;4990008;28;20117;-62
2022/07/26 13:28:31;;;;;;;4.65;2.35;;;;;;;;;;4987733;28;20113;-62
2022/07/26 13:30:57;;;;;;;7.78;3.95;;;;;;;;;;4989383;28;20098;-62
2022/07/26 13:33:22;;;;;;;2.88;1.67;;;;;;;;;;4988346;28;20489;-61
2022/07/26 13:35:47;;;;;;;6.55;3.20;;;;;;;;;;4988485;28;20563;-62
2022/07/26 13:38:13;;;;;;;6.35;1.75;;;;;;;;;;4988369;28;20465;-62
2022/07/26 13:40:38;;;;;;;6.10;3.55;;;;;;;;;;4988416;28;20078;-61
2022/07/26 13:43:03;;;;;;;2.83;1.27;;;;;;;;;;4988034;28;20053;-61
2022/07/26 13:45:29;;;;;;;3.35;1.95;;;;;;;;;;4987772;28;20058;-61
2022/07/26 13:47:54;;;;;;;2.33;1.30;;;;;;;;;;4987174;28;20046;-62
2022/07/26 13:50:20;;;;;;;12.88;3.55;;;;;;;;;;4985297;28;20054;-61
2022/07/26 13:52:45;;;;;;;2.85;1.65;;;;;;;;;;4988942;28;20460;-61
2022/07/26 13:55:10;;;;;;;4.97;2.65;;;;;;;;;;4986336;28;20050;-61
2022/07/26 13:57:35;;;;;;;3.15;1.52;;;;;;;;;;4988531;28;20129;-61
2022/07/26 14:00:01;;;;;;;8.45;2.13;;;;;;;;;;4988511;28;20132;-61
2022/07/26 14:02:26;;;;;;;2.53;2.03;;;;;;;;;;4988093;28;20057;-61
2022/07/26 14:04:51;;;;;;;6.05;2.50;;;;;;;;;;4988036;28;20474;-61
2022/07/26 14:07:17;;;;;;;10.10;2.75;;;;;;;;;;4988050;28;20062;-62
2022/07/26 14:09:42;;;;;;;3.10;2.20;;;;;;;;;;4989568;28;20136;-42
2022/07/26 14:12:11;;;;;;;3.80;2.47;;;;;;;;;;4988418;28;20132;-42
2022/07/26 14:14:36;;;;;;;7.18;2.42;;;;;;;;;;4987932;28;20046;-42
2022/07/26 14:17:01;;;;;;;3.25;1.85;;;;;;;;;;4987281;28;20046;-46
2022/07/26 14:19:27;;;;;;;4.97;2.30;;;;;;;;;;4987707;28;20043;-41
2022/07/26 14:21:52;;;;;;;4.22;3.17;;;;;;;;;;4989695;28;20097;-42
2022/07/26 14:24:18;;;;;;;11.80;3.00;;;;;;;;;;4987946;28;20046;-44
2022/07/26 14:26:43;;;;;;;9.10;4.82;;;;;;;;;;4988014;28;20082;-46
2022/07/26 14:29:08;;;;;;;8.73;5.10;;;;;;;;;;4986600;28;20128;-43
2022/07/26 14:31:34;;;;;;;7.68;3.85;;;;;;;;;;4986004;28;20050;-45
2022/07/26 14:33:59;;;;;;;14.07;5.10;;;;;;;;;;4986979;28;20062;-44